sensor_id;sensor_type;location;lat;lon;timestamp;P1;durP1;ratioP1;P2;durP2;ratioP2
19183;SDS011;9724;51.194;6.856;2022-10-31T00:00:02;16.97;;;6.97;;
19183;SDS011;9724;51.194;6.856;2022-10-31T00:02:30;17.57;;;7.17;;
19183;SDS011;9724;51.194;6.856;2022-10-31T00:04:57;14.30;;;6.73;;
19183;SDS011;9724;51.194;6.856;2022-10-31T00:07:23;14.77;;;6.70;;
19183;SDS011;9724;51.194;6.856;2022-10-31T00:09:49;11.03;;;6.37;;
19183;SDS011;9724;51.194;6.856;2022-10-31T00:12:15;17.83;;;7.53;;
19183;SDS011;9724;51.194;6.856;2022-10-31T00:14:42;12.03;;;7.50;;
19183;SDS011;9724;51.194;6.856;2022-10-31T00:17:08;18.83;;;7.73;;
19183;SDS011;9724;51.194;6.856;2022-10-31T00:19:34;15.67;;;6.87;;
19183;SDS011;9724;51.194;6.856;2022-10-31T00:22:00;14.33;;;7.30;;
19183;SDS011;9724;51.194;6.856;2022-10-31T00:24:26;14.50;;;7.03;;
19183;SDS011;9724;51.194;6.856;2022-10-31T00:26:52;15.50;;;6.30;;
19183;SDS011;9724;51.194;6.856;2022-10-31T00:29:19;13.90;;;6.70;;
19183;SDS011;9724;51.194;6.856;2022-10-31T00:31:45;12.43;;;6.80;;
19183;SDS011;9724;51.194;6.856;2022-10-31T00:34:11;15.23;;;6.27;;
19183;SDS011;9724;51.194;6.856;2022-10-31T00:36:38;16.73;;;7.60;;
19183;SDS011;9724;51.194;6.856;2022-10-31T00:39:04;17.33;;;6.90;;
19183;SDS011;9724;51.194;6.856;2022-10-31T00:41:30;18.20;;;7.20;;
19183;SDS011;9724;51.194;6.856;2022-10-31T00:43:56;16.07;;;6.90;;
19183;SDS011;9724;51.194;6.856;2022-10-31T00:46:22;13.60;;;6.53;;
19183;SDS011;9724;51.194;6.856;2022-10-31T00:48:49;15.57;;;6.93;;
19183;SDS011;9724;51.194;6.856;2022-10-31T00:51:15;13.20;;;7.17;;
19183;SDS011;9724;51.194;6.856;2022-10-31T00:53:41;15.70;;;7.40;;
19183;SDS011;9724;51.194;6.856;2022-10-31T00:56:07;17.13;;;7.73;;
19183;SDS011;9724;51.194;6.856;2022-10-31T00:58:34;15.53;;;6.90;;
19183;SDS011;9724;51.194;6.856;2022-10-31T01:01:00;17.70;;;7.30;;
19183;SDS011;9724;51.194;6.856;2022-10-31T01:03:27;14.30;;;7.63;;
19183;SDS011;9724;51.194;6.856;2022-10-31T01:05:58;15.87;;;7.37;;
19183;SDS011;9724;51.194;6.856;2022-10-31T01:08:26;12.70;;;7.40;;
19183;SDS011;9724;51.194;6.856;2022-10-31T01:10:59;14.33;;;8.13;;
19183;SDS011;9724;51.194;6.856;2022-10-31T01:13:27;19.07;;;7.33;;
19183;SDS011;9724;51.194;6.856;2022-10-31T01:15:53;21.17;;;7.60;;
19183;SDS011;9724;51.194;6.856;2022-10-31T01:18:20;14.30;;;7.47;;
19183;SDS011;9724;51.194;6.856;2022-10-31T01:20:46;13.70;;;7.43;;
19183;SDS011;9724;51.194;6.856;2022-10-31T01:23:13;19.43;;;7.43;;
19183;SDS011;9724;51.194;6.856;2022-10-31T01:25:39;20.17;;;8.67;;
19183;SDS011;9724;51.194;6.856;2022-10-31T01:28:05;17.20;;;7.57;;
19183;SDS011;9724;51.194;6.856;2022-10-31T01:30:31;18.87;;;7.70;;
19183;SDS011;9724;51.194;6.856;2022-10-31T01:32:58;15.03;;;7.47;;
19183;SDS011;9724;51.194;6.856;2022-10-31T01:35:24;18.03;;;8.00;;
19183;SDS011;9724;51.194;6.856;2022-10-31T01:37:51;21.90;;;7.90;;
19183;SDS011;9724;51.194;6.856;2022-10-31T01:40:17;15.10;;;7.20;;
19183;SDS011;9724;51.194;6.856;2022-10-31T01:42:43;19.10;;;7.67;;
19183;SDS011;9724;51.194;6.856;2022-10-31T01:45:10;16.97;;;7.70;;
19183;SDS011;9724;51.194;6.856;2022-10-31T01:47:38;18.33;;;7.60;;
19183;SDS011;9724;51.194;6.856;2022-10-31T01:50:10;17.63;;;7.60;;
19183;SDS011;9724;51.194;6.856;2022-10-31T01:52:40;25.07;;;7.83;;
19183;SDS011;9724;51.194;6.856;2022-10-31T01:55:07;17.37;;;7.97;;
19183;SDS011;9724;51.194;6.856;2022-10-31T01:57:36;16.67;;;6.93;;
19183;SDS011;9724;51.194;6.856;2022-10-31T02:00:04;17.63;;;8.00;;
19183;SDS011;9724;51.194;6.856;2022-10-31T02:02:33;20.83;;;8.00;;
19183;SDS011;9724;51.194;6.856;2022-10-31T02:05:00;16.17;;;7.00;;
19183;SDS011;9724;51.194;6.856;2022-10-31T02:07:30;20.03;;;8.00;;
19183;SDS011;9724;51.194;6.856;2022-10-31T02:09:58;16.80;;;7.23;;
19183;SDS011;9724;51.194;6.856;2022-10-31T02:12:26;15.87;;;7.07;;
19183;SDS011;9724;51.194;6.856;2022-10-31T02:14:53;15.53;;;6.97;;
19183;SDS011;9724;51.194;6.856;2022-10-31T02:17:19;14.30;;;7.10;;
19183;SDS011;9724;51.194;6.856;2022-10-31T02:19:47;17.87;;;7.93;;
19183;SDS011;9724;51.194;6.856;2022-10-31T02:22:20;14.53;;;6.77;;
19183;SDS011;9724;51.194;6.856;2022-10-31T02:24:53;16.67;;;6.93;;
19183;SDS011;9724;51.194;6.856;2022-10-31T02:27:34;17.17;;;7.17;;
19183;SDS011;9724;51.194;6.856;2022-10-31T02:30:15;13.60;;;6.77;;
19183;SDS011;9724;51.194;6.856;2022-10-31T02:32:44;15.13;;;7.10;;
19183;SDS011;9724;51.194;6.856;2022-10-31T02:35:13;14.23;;;7.00;;
19183;SDS011;9724;51.194;6.856;2022-10-31T02:37:47;18.23;;;7.37;;
19183;SDS011;9724;51.194;6.856;2022-10-31T02:40:17;15.53;;;6.67;;
19183;SDS011;9724;51.194;6.856;2022-10-31T02:42:49;15.87;;;7.57;;
19183;SDS011;9724;51.194;6.856;2022-10-31T02:45:20;17.47;;;7.33;;
19183;SDS011;9724;51.194;6.856;2022-10-31T02:47:52;18.70;;;7.37;;
19183;SDS011;9724;51.194;6.856;2022-10-31T02:50:21;14.47;;;6.83;;
19183;SDS011;9724;51.194;6.856;2022-10-31T02:52:49;14.17;;;6.73;;
19183;SDS011;9724;51.194;6.856;2022-10-31T02:58:15;14.10;;;7.27;;
19183;SDS011;9724;51.194;6.856;2022-10-31T03:00:53;16.43;;;7.03;;
19183;SDS011;9724;51.194;6.856;2022-10-31T03:03:41;16.03;;;6.70;;
19183;SDS011;9724;51.194;6.856;2022-10-31T03:06:14;17.90;;;7.00;;
19183;SDS011;9724;51.194;6.856;2022-10-31T03:08:46;12.93;;;6.73;;
19183;SDS011;9724;51.194;6.856;2022-10-31T03:11:17;19.23;;;7.17;;
19183;SDS011;9724;51.194;6.856;2022-10-31T03:13:47;22.30;;;7.13;;
19183;SDS011;9724;51.194;6.856;2022-10-31T03:16:17;19.57;;;7.33;;
19183;SDS011;9724;51.194;6.856;2022-10-31T03:18:49;15.30;;;7.47;;
19183;SDS011;9724;51.194;6.856;2022-10-31T03:21:18;19.47;;;7.73;;
19183;SDS011;9724;51.194;6.856;2022-10-31T03:23:46;17.33;;;7.40;;
19183;SDS011;9724;51.194;6.856;2022-10-31T03:26:15;19.93;;;8.23;;
19183;SDS011;9724;51.194;6.856;2022-10-31T03:28:42;15.37;;;7.63;;
19183;SDS011;9724;51.194;6.856;2022-10-31T03:31:10;15.07;;;7.27;;
19183;SDS011;9724;51.194;6.856;2022-10-31T03:33:39;20.07;;;7.70;;
19183;SDS011;9724;51.194;6.856;2022-10-31T03:36:07;17.93;;;7.73;;
19183;SDS011;9724;51.194;6.856;2022-10-31T03:38:34;24.63;;;8.60;;
19183;SDS011;9724;51.194;6.856;2022-10-31T03:41:01;20.60;;;7.57;;
19183;SDS011;9724;51.194;6.856;2022-10-31T03:43:30;19.67;;;8.07;;
19183;SDS011;9724;51.194;6.856;2022-10-31T03:45:59;17.17;;;8.17;;
19183;SDS011;9724;51.194;6.856;2022-10-31T03:48:25;15.80;;;7.57;;
19183;SDS011;9724;51.194;6.856;2022-10-31T03:50:57;19.83;;;7.30;;
19183;SDS011;9724;51.194;6.856;2022-10-31T03:53:30;15.30;;;7.33;;
19183;SDS011;9724;51.194;6.856;2022-10-31T03:55:59;19.43;;;7.53;;
19183;SDS011;9724;51.194;6.856;2022-10-31T03:58:29;20.70;;;7.80;;
19183;SDS011;9724;51.194;6.856;2022-10-31T04:00:58;18.50;;;7.77;;
19183;SDS011;9724;51.194;6.856;2022-10-31T04:03:26;20.07;;;7.70;;
19183;SDS011;9724;51.194;6.856;2022-10-31T04:05:54;17.53;;;8.23;;
19183;SDS011;9724;51.194;6.856;2022-10-31T04:08:21;21.10;;;7.80;;
19183;SDS011;9724;51.194;6.856;2022-10-31T04:10:53;16.00;;;7.73;;
19183;SDS011;9724;51.194;6.856;2022-10-31T04:13:21;16.70;;;8.13;;
19183;SDS011;9724;51.194;6.856;2022-10-31T04:15:50;19.23;;;7.20;;
19183;SDS011;9724;51.194;6.856;2022-10-31T04:18:18;16.80;;;8.10;;
19183;SDS011;9724;51.194;6.856;2022-10-31T04:20:44;21.97;;;8.17;;
19183;SDS011;9724;51.194;6.856;2022-10-31T04:23:15;15.13;;;7.67;;
19183;SDS011;9724;51.194;6.856;2022-10-31T04:25:44;14.53;;;7.40;;
19183;SDS011;9724;51.194;6.856;2022-10-31T04:28:11;18.07;;;7.27;;
19183;SDS011;9724;51.194;6.856;2022-10-31T04:30:38;15.67;;;7.13;;
19183;SDS011;9724;51.194;6.856;2022-10-31T04:33:04;15.13;;;7.17;;
19183;SDS011;9724;51.194;6.856;2022-10-31T04:35:30;17.43;;;7.03;;
19183;SDS011;9724;51.194;6.856;2022-10-31T04:37:57;18.23;;;7.90;;
19183;SDS011;9724;51.194;6.856;2022-10-31T04:40:24;15.90;;;7.67;;
19183;SDS011;9724;51.194;6.856;2022-10-31T04:42:50;14.83;;;7.77;;
19183;SDS011;9724;51.194;6.856;2022-10-31T04:45:17;16.37;;;7.77;;
19183;SDS011;9724;51.194;6.856;2022-10-31T04:47:46;18.37;;;7.50;;
19183;SDS011;9724;51.194;6.856;2022-10-31T04:50:13;17.23;;;7.47;;
19183;SDS011;9724;51.194;6.856;2022-10-31T04:52:39;18.67;;;7.27;;
19183;SDS011;9724;51.194;6.856;2022-10-31T04:55:06;21.23;;;8.30;;
19183;SDS011;9724;51.194;6.856;2022-10-31T04:57:39;15.80;;;7.70;;
19183;SDS011;9724;51.194;6.856;2022-10-31T05:00:06;13.97;;;7.60;;
19183;SDS011;9724;51.194;6.856;2022-10-31T05:02:34;20.30;;;7.90;;
19183;SDS011;9724;51.194;6.856;2022-10-31T05:05:09;18.30;;;7.80;;
19183;SDS011;9724;51.194;6.856;2022-10-31T05:07:37;16.10;;;7.60;;
19183;SDS011;9724;51.194;6.856;2022-10-31T05:10:05;22.40;;;8.23;;
19183;SDS011;9724;51.194;6.856;2022-10-31T05:12:31;22.97;;;10.43;;
19183;SDS011;9724;51.194;6.856;2022-10-31T05:14:58;24.67;;;9.10;;
19183;SDS011;9724;51.194;6.856;2022-10-31T05:17:24;16.43;;;8.60;;
19183;SDS011;9724;51.194;6.856;2022-10-31T05:19:50;20.87;;;7.97;;
19183;SDS011;9724;51.194;6.856;2022-10-31T05:22:17;16.03;;;8.20;;
19183;SDS011;9724;51.194;6.856;2022-10-31T05:24:43;16.27;;;8.57;;
19183;SDS011;9724;51.194;6.856;2022-10-31T05:27:09;21.23;;;8.70;;
19183;SDS011;9724;51.194;6.856;2022-10-31T05:29:35;15.73;;;8.60;;
19183;SDS011;9724;51.194;6.856;2022-10-31T05:32:01;19.70;;;9.23;;
19183;SDS011;9724;51.194;6.856;2022-10-31T05:34:27;14.87;;;8.47;;
19183;SDS011;9724;51.194;6.856;2022-10-31T05:36:54;22.23;;;10.07;;
19183;SDS011;9724;51.194;6.856;2022-10-31T05:39:20;18.27;;;8.33;;
19183;SDS011;9724;51.194;6.856;2022-10-31T05:41:47;22.17;;;9.03;;
19183;SDS011;9724;51.194;6.856;2022-10-31T05:44:13;16.67;;;8.00;;
19183;SDS011;9724;51.194;6.856;2022-10-31T05:46:39;16.73;;;8.47;;
19183;SDS011;9724;51.194;6.856;2022-10-31T05:49:05;18.20;;;8.07;;
19183;SDS011;9724;51.194;6.856;2022-10-31T05:51:31;25.60;;;8.60;;
19183;SDS011;9724;51.194;6.856;2022-10-31T05:53:58;17.03;;;8.97;;
19183;SDS011;9724;51.194;6.856;2022-10-31T05:56:24;18.10;;;8.30;;
19183;SDS011;9724;51.194;6.856;2022-10-31T05:58:50;17.50;;;7.20;;
19183;SDS011;9724;51.194;6.856;2022-10-31T06:01:17;13.57;;;7.57;;
19183;SDS011;9724;51.194;6.856;2022-10-31T06:03:43;14.70;;;7.70;;
19183;SDS011;9724;51.194;6.856;2022-10-31T06:06:09;17.30;;;7.40;;
19183;SDS011;9724;51.194;6.856;2022-10-31T06:08:35;13.53;;;7.33;;
19183;SDS011;9724;51.194;6.856;2022-10-31T06:11:02;15.20;;;7.20;;
19183;SDS011;9724;51.194;6.856;2022-10-31T06:13:29;20.00;;;7.67;;
19183;SDS011;9724;51.194;6.856;2022-10-31T06:15:55;14.70;;;7.43;;
19183;SDS011;9724;51.194;6.856;2022-10-31T06:18:21;14.43;;;7.20;;
19183;SDS011;9724;51.194;6.856;2022-10-31T06:20:47;13.27;;;7.00;;
19183;SDS011;9724;51.194;6.856;2022-10-31T06:23:14;17.07;;;7.50;;
19183;SDS011;9724;51.194;6.856;2022-10-31T06:25:40;20.83;;;7.67;;
19183;SDS011;9724;51.194;6.856;2022-10-31T06:28:07;13.87;;;7.00;;
19183;SDS011;9724;51.194;6.856;2022-10-31T06:30:33;15.47;;;7.53;;
19183;SDS011;9724;51.194;6.856;2022-10-31T06:33:02;16.30;;;8.73;;
19183;SDS011;9724;51.194;6.856;2022-10-31T06:35:29;16.70;;;7.60;;
19183;SDS011;9724;51.194;6.856;2022-10-31T06:37:55;12.00;;;7.30;;
19183;SDS011;9724;51.194;6.856;2022-10-31T06:40:22;16.50;;;7.97;;
19183;SDS011;9724;51.194;6.856;2022-10-31T06:42:55;14.13;;;7.30;;
19183;SDS011;9724;51.194;6.856;2022-10-31T06:45:23;17.40;;;8.57;;
19183;SDS011;9724;51.194;6.856;2022-10-31T06:47:50;23.00;;;8.60;;
19183;SDS011;9724;51.194;6.856;2022-10-31T06:50:37;18.17;;;8.97;;
19183;SDS011;9724;51.194;6.856;2022-10-31T06:53:03;27.27;;;9.00;;
19183;SDS011;9724;51.194;6.856;2022-10-31T06:55:29;21.47;;;8.53;;
19183;SDS011;9724;51.194;6.856;2022-10-31T06:57:56;15.37;;;8.40;;
19183;SDS011;9724;51.194;6.856;2022-10-31T07:00:29;14.73;;;8.77;;
19183;SDS011;9724;51.194;6.856;2022-10-31T07:02:56;22.60;;;8.77;;
19183;SDS011;9724;51.194;6.856;2022-10-31T07:05:24;21.43;;;9.73;;
19183;SDS011;9724;51.194;6.856;2022-10-31T07:07:53;16.17;;;8.90;;
19183;SDS011;9724;51.194;6.856;2022-10-31T07:10:19;18.03;;;8.90;;
19183;SDS011;9724;51.194;6.856;2022-10-31T07:12:46;22.37;;;9.00;;
19183;SDS011;9724;51.194;6.856;2022-10-31T07:15:12;22.20;;;8.70;;
19183;SDS011;9724;51.194;6.856;2022-10-31T07:17:39;18.47;;;8.83;;
19183;SDS011;9724;51.194;6.856;2022-10-31T07:20:05;21.87;;;8.57;;
19183;SDS011;9724;51.194;6.856;2022-10-31T07:22:33;22.57;;;7.93;;
19183;SDS011;9724;51.194;6.856;2022-10-31T07:24:59;22.90;;;8.20;;
19183;SDS011;9724;51.194;6.856;2022-10-31T07:27:25;17.57;;;8.57;;
19183;SDS011;9724;51.194;6.856;2022-10-31T07:29:52;15.93;;;8.57;;
19183;SDS011;9724;51.194;6.856;2022-10-31T07:32:18;21.53;;;8.57;;
19183;SDS011;9724;51.194;6.856;2022-10-31T07:34:45;22.63;;;7.63;;
19183;SDS011;9724;51.194;6.856;2022-10-31T07:37:12;20.43;;;8.40;;
19183;SDS011;9724;51.194;6.856;2022-10-31T07:39:39;21.87;;;8.03;;
19183;SDS011;9724;51.194;6.856;2022-10-31T07:42:05;19.90;;;8.40;;
19183;SDS011;9724;51.194;6.856;2022-10-31T07:44:31;15.87;;;7.53;;
19183;SDS011;9724;51.194;6.856;2022-10-31T07:46:57;17.70;;;7.90;;
19183;SDS011;9724;51.194;6.856;2022-10-31T07:49:24;21.43;;;8.63;;
19183;SDS011;9724;51.194;6.856;2022-10-31T07:51:51;12.27;;;7.23;;
19183;SDS011;9724;51.194;6.856;2022-10-31T07:54:17;16.37;;;7.20;;
19183;SDS011;9724;51.194;6.856;2022-10-31T07:56:43;21.63;;;7.50;;
19183;SDS011;9724;51.194;6.856;2022-10-31T07:59:10;20.30;;;8.13;;
19183;SDS011;9724;51.194;6.856;2022-10-31T08:01:36;21.73;;;7.87;;
19183;SDS011;9724;51.194;6.856;2022-10-31T08:04:02;15.40;;;7.67;;
19183;SDS011;9724;51.194;6.856;2022-10-31T08:06:29;15.70;;;7.47;;
19183;SDS011;9724;51.194;6.856;2022-10-31T08:08:56;22.70;;;8.13;;
19183;SDS011;9724;51.194;6.856;2022-10-31T08:11:22;19.70;;;8.73;;
19183;SDS011;9724;51.194;6.856;2022-10-31T08:13:48;17.70;;;8.07;;
19183;SDS011;9724;51.194;6.856;2022-10-31T08:16:14;19.80;;;8.50;;
19183;SDS011;9724;51.194;6.856;2022-10-31T08:18:41;20.50;;;9.13;;
19183;SDS011;9724;51.194;6.856;2022-10-31T08:21:07;20.70;;;8.47;;
19183;SDS011;9724;51.194;6.856;2022-10-31T08:23:33;21.30;;;9.73;;
19183;SDS011;9724;51.194;6.856;2022-10-31T08:26:00;21.57;;;9.50;;
19183;SDS011;9724;51.194;6.856;2022-10-31T08:28:26;23.60;;;9.87;;
19183;SDS011;9724;51.194;6.856;2022-10-31T08:30:52;19.53;;;10.03;;
19183;SDS011;9724;51.194;6.856;2022-10-31T08:33:19;24.33;;;9.47;;
19183;SDS011;9724;51.194;6.856;2022-10-31T08:35:45;18.07;;;9.70;;
19183;SDS011;9724;51.194;6.856;2022-10-31T08:38:11;22.13;;;11.67;;
19183;SDS011;9724;51.194;6.856;2022-10-31T08:40:38;26.60;;;10.23;;
19183;SDS011;9724;51.194;6.856;2022-10-31T08:43:06;21.23;;;10.27;;
19183;SDS011;9724;51.194;6.856;2022-10-31T08:45:38;21.10;;;10.63;;
19183;SDS011;9724;51.194;6.856;2022-10-31T08:48:06;20.60;;;10.27;;
19183;SDS011;9724;51.194;6.856;2022-10-31T08:50:35;23.97;;;10.17;;
19183;SDS011;9724;51.194;6.856;2022-10-31T08:53:01;26.67;;;10.73;;
19183;SDS011;9724;51.194;6.856;2022-10-31T08:55:32;19.87;;;10.10;;
19183;SDS011;9724;51.194;6.856;2022-10-31T08:57:58;24.17;;;10.83;;
19183;SDS011;9724;51.194;6.856;2022-10-31T09:00:26;18.47;;;10.40;;
19183;SDS011;9724;51.194;6.856;2022-10-31T09:02:56;21.93;;;10.30;;
19183;SDS011;9724;51.194;6.856;2022-10-31T09:05:22;34.70;;;12.03;;
19183;SDS011;9724;51.194;6.856;2022-10-31T09:07:48;24.63;;;10.30;;
19183;SDS011;9724;51.194;6.856;2022-10-31T09:10:15;16.50;;;9.73;;
19183;SDS011;9724;51.194;6.856;2022-10-31T09:12:41;23.00;;;10.17;;
19183;SDS011;9724;51.194;6.856;2022-10-31T09:15:08;24.50;;;11.17;;
19183;SDS011;9724;51.194;6.856;2022-10-31T09:17:35;26.57;;;10.67;;
19183;SDS011;9724;51.194;6.856;2022-10-31T09:20:01;26.30;;;10.87;;
19183;SDS011;9724;51.194;6.856;2022-10-31T09:22:27;25.10;;;10.83;;
19183;SDS011;9724;51.194;6.856;2022-10-31T09:24:54;29.33;;;10.37;;
19183;SDS011;9724;51.194;6.856;2022-10-31T09:27:20;26.07;;;10.67;;
19183;SDS011;9724;51.194;6.856;2022-10-31T09:29:46;23.27;;;10.43;;
19183;SDS011;9724;51.194;6.856;2022-10-31T09:32:12;25.43;;;10.57;;
19183;SDS011;9724;51.194;6.856;2022-10-31T09:34:39;30.70;;;10.07;;
19183;SDS011;9724;51.194;6.856;2022-10-31T09:37:05;26.00;;;11.07;;
19183;SDS011;9724;51.194;6.856;2022-10-31T09:39:31;24.90;;;11.20;;
19183;SDS011;9724;51.194;6.856;2022-10-31T09:42:01;26.37;;;10.60;;
19183;SDS011;9724;51.194;6.856;2022-10-31T09:44:33;29.83;;;10.20;;
19183;SDS011;9724;51.194;6.856;2022-10-31T09:47:08;23.73;;;10.60;;
19183;SDS011;9724;51.194;6.856;2022-10-31T09:49:45;18.03;;;10.00;;
19183;SDS011;9724;51.194;6.856;2022-10-31T09:52:20;22.30;;;9.97;;
19183;SDS011;9724;51.194;6.856;2022-10-31T09:54:49;18.57;;;9.57;;
19183;SDS011;9724;51.194;6.856;2022-10-31T09:57:19;20.90;;;10.30;;
19183;SDS011;9724;51.194;6.856;2022-10-31T09:59:49;24.97;;;10.23;;
19183;SDS011;9724;51.194;6.856;2022-10-31T10:02:16;25.00;;;10.63;;
19183;SDS011;9724;51.194;6.856;2022-10-31T10:04:48;21.87;;;9.87;;
19183;SDS011;9724;51.194;6.856;2022-10-31T10:07:21;24.70;;;9.97;;
19183;SDS011;9724;51.194;6.856;2022-10-31T10:09:50;25.33;;;10.07;;
19183;SDS011;9724;51.194;6.856;2022-10-31T10:12:18;25.63;;;10.97;;
19183;SDS011;9724;51.194;6.856;2022-10-31T10:14:56;20.83;;;9.73;;
19183;SDS011;9724;51.194;6.856;2022-10-31T10:17:37;17.70;;;9.70;;
19183;SDS011;9724;51.194;6.856;2022-10-31T10:20:16;20.93;;;9.67;;
19183;SDS011;9724;51.194;6.856;2022-10-31T10:22:47;25.37;;;10.67;;
19183;SDS011;9724;51.194;6.856;2022-10-31T10:25:20;22.50;;;9.73;;
19183;SDS011;9724;51.194;6.856;2022-10-31T10:27:50;21.27;;;9.40;;
19183;SDS011;9724;51.194;6.856;2022-10-31T10:30:23;23.97;;;8.93;;
19183;SDS011;9724;51.194;6.856;2022-10-31T10:32:54;21.80;;;8.97;;
19183;SDS011;9724;51.194;6.856;2022-10-31T10:35:24;20.17;;;8.97;;
19183;SDS011;9724;51.194;6.856;2022-10-31T10:37:56;21.57;;;8.70;;
19183;SDS011;9724;51.194;6.856;2022-10-31T10:40:25;17.53;;;9.07;;
19183;SDS011;9724;51.194;6.856;2022-10-31T10:42:55;22.10;;;8.90;;
19183;SDS011;9724;51.194;6.856;2022-10-31T10:45:43;18.47;;;9.30;;
19183;SDS011;9724;51.194;6.856;2022-10-31T10:48:38;19.30;;;9.67;;
19183;SDS011;9724;51.194;6.856;2022-10-31T10:51:12;19.53;;;9.40;;
19183;SDS011;9724;51.194;6.856;2022-10-31T10:54:10;21.83;;;9.03;;
19183;SDS011;9724;51.194;6.856;2022-10-31T10:56:48;26.07;;;8.77;;
19183;SDS011;9724;51.194;6.856;2022-10-31T10:59:20;22.77;;;8.50;;
19183;SDS011;9724;51.194;6.856;2022-10-31T11:01:48;18.33;;;8.67;;
19183;SDS011;9724;51.194;6.856;2022-10-31T11:04:21;22.93;;;8.83;;
19183;SDS011;9724;51.194;6.856;2022-10-31T11:06:58;23.13;;;8.67;;
19183;SDS011;9724;51.194;6.856;2022-10-31T11:09:25;16.53;;;9.30;;
19183;SDS011;9724;51.194;6.856;2022-10-31T11:11:51;26.43;;;9.37;;
19183;SDS011;9724;51.194;6.856;2022-10-31T11:14:17;23.30;;;8.73;;
19183;SDS011;9724;51.194;6.856;2022-10-31T11:16:46;15.43;;;8.43;;
19183;SDS011;9724;51.194;6.856;2022-10-31T11:19:15;24.33;;;7.87;;
19183;SDS011;9724;51.194;6.856;2022-10-31T11:21:43;23.47;;;9.10;;
19183;SDS011;9724;51.194;6.856;2022-10-31T11:24:20;21.90;;;9.27;;
19183;SDS011;9724;51.194;6.856;2022-10-31T11:26:48;21.43;;;9.43;;
19183;SDS011;9724;51.194;6.856;2022-10-31T11:29:16;26.47;;;9.47;;
19183;SDS011;9724;51.194;6.856;2022-10-31T11:31:43;28.37;;;8.93;;
19183;SDS011;9724;51.194;6.856;2022-10-31T11:34:15;24.10;;;8.80;;
19183;SDS011;9724;51.194;6.856;2022-10-31T11:36:44;21.37;;;8.40;;
19183;SDS011;9724;51.194;6.856;2022-10-31T11:39:15;21.40;;;8.80;;
19183;SDS011;9724;51.194;6.856;2022-10-31T11:41:43;19.33;;;8.07;;
19183;SDS011;9724;51.194;6.856;2022-10-31T11:44:11;21.27;;;8.20;;
19183;SDS011;9724;51.194;6.856;2022-10-31T11:46:40;20.33;;;8.17;;
19183;SDS011;9724;51.194;6.856;2022-10-31T11:49:12;24.43;;;7.77;;
19183;SDS011;9724;51.194;6.856;2022-10-31T11:51:41;16.80;;;7.30;;
19183;SDS011;9724;51.194;6.856;2022-10-31T11:54:14;20.00;;;6.33;;
19183;SDS011;9724;51.194;6.856;2022-10-31T11:56:46;20.47;;;7.00;;
19183;SDS011;9724;51.194;6.856;2022-10-31T11:59:15;14.20;;;5.83;;
19183;SDS011;9724;51.194;6.856;2022-10-31T12:01:46;16.23;;;5.97;;
19183;SDS011;9724;51.194;6.856;2022-10-31T12:04:13;11.80;;;5.60;;
19183;SDS011;9724;51.194;6.856;2022-10-31T12:06:40;15.23;;;4.63;;
19183;SDS011;9724;51.194;6.856;2022-10-31T12:09:10;12.27;;;4.40;;
19183;SDS011;9724;51.194;6.856;2022-10-31T12:11:48;14.80;;;4.67;;
19183;SDS011;9724;51.194;6.856;2022-10-31T12:14:33;14.27;;;4.77;;
19183;SDS011;9724;51.194;6.856;2022-10-31T12:17:04;24.07;;;4.70;;
19183;SDS011;9724;51.194;6.856;2022-10-31T12:19:36;12.60;;;4.20;;
19183;SDS011;9724;51.194;6.856;2022-10-31T12:22:09;18.40;;;4.57;;
19183;SDS011;9724;51.194;6.856;2022-10-31T12:24:45;11.47;;;4.27;;
19183;SDS011;9724;51.194;6.856;2022-10-31T12:27:24;15.83;;;4.67;;
19183;SDS011;9724;51.194;6.856;2022-10-31T12:30:09;10.90;;;3.80;;
19183;SDS011;9724;51.194;6.856;2022-10-31T12:32:42;18.10;;;4.17;;
19183;SDS011;9724;51.194;6.856;2022-10-31T12:35:26;14.43;;;4.77;;
19183;SDS011;9724;51.194;6.856;2022-10-31T12:38:14;16.77;;;4.47;;
19183;SDS011;9724;51.194;6.856;2022-10-31T12:41:12;12.37;;;4.33;;
19183;SDS011;9724;51.194;6.856;2022-10-31T12:43:47;12.33;;;3.87;;
19183;SDS011;9724;51.194;6.856;2022-10-31T12:46:21;17.17;;;4.33;;
19183;SDS011;9724;51.194;6.856;2022-10-31T12:48:57;11.53;;;4.50;;
19183;SDS011;9724;51.194;6.856;2022-10-31T12:51:33;10.37;;;3.87;;
19183;SDS011;9724;51.194;6.856;2022-10-31T12:54:11;11.27;;;4.00;;
19183;SDS011;9724;51.194;6.856;2022-10-31T12:56:46;17.83;;;4.70;;
19183;SDS011;9724;51.194;6.856;2022-10-31T12:59:21;12.37;;;5.03;;
19183;SDS011;9724;51.194;6.856;2022-10-31T13:01:53;11.37;;;3.83;;
19183;SDS011;9724;51.194;6.856;2022-10-31T13:04:27;13.30;;;4.43;;
19183;SDS011;9724;51.194;6.856;2022-10-31T13:07:00;13.87;;;4.47;;
19183;SDS011;9724;51.194;6.856;2022-10-31T13:09:30;12.73;;;4.30;;
19183;SDS011;9724;51.194;6.856;2022-10-31T13:11:59;12.27;;;4.30;;
19183;SDS011;9724;51.194;6.856;2022-10-31T13:14:29;17.13;;;4.27;;
19183;SDS011;9724;51.194;6.856;2022-10-31T13:16:58;15.03;;;4.50;;
19183;SDS011;9724;51.194;6.856;2022-10-31T13:19:25;14.03;;;4.37;;
19183;SDS011;9724;51.194;6.856;2022-10-31T13:22:02;13.67;;;4.60;;
19183;SDS011;9724;51.194;6.856;2022-10-31T13:24:33;15.73;;;3.80;;
19183;SDS011;9724;51.194;6.856;2022-10-31T13:27:02;12.63;;;4.30;;
19183;SDS011;9724;51.194;6.856;2022-10-31T13:29:35;11.87;;;4.60;;
19183;SDS011;9724;51.194;6.856;2022-10-31T13:32:05;11.47;;;4.67;;
19183;SDS011;9724;51.194;6.856;2022-10-31T13:34:33;20.27;;;5.83;;
19183;SDS011;9724;51.194;6.856;2022-10-31T13:37:05;13.50;;;4.43;;
19183;SDS011;9724;51.194;6.856;2022-10-31T13:39:41;14.30;;;3.90;;
19183;SDS011;9724;51.194;6.856;2022-10-31T13:42:16;11.33;;;4.87;;
19183;SDS011;9724;51.194;6.856;2022-10-31T13:44:47;12.20;;;4.40;;
19183;SDS011;9724;51.194;6.856;2022-10-31T13:47:24;13.80;;;4.63;;
19183;SDS011;9724;51.194;6.856;2022-10-31T13:50:02;18.03;;;4.10;;
19183;SDS011;9724;51.194;6.856;2022-10-31T13:52:29;10.60;;;4.10;;
19183;SDS011;9724;51.194;6.856;2022-10-31T13:54:55;14.80;;;4.77;;
19183;SDS011;9724;51.194;6.856;2022-10-31T13:57:24;13.30;;;3.90;;
19183;SDS011;9724;51.194;6.856;2022-10-31T14:00:00;17.20;;;4.37;;
19183;SDS011;9724;51.194;6.856;2022-10-31T14:02:29;8.50;;;4.23;;
19183;SDS011;9724;51.194;6.856;2022-10-31T14:04:58;16.43;;;3.80;;
19183;SDS011;9724;51.194;6.856;2022-10-31T14:07:25;14.23;;;4.00;;
19183;SDS011;9724;51.194;6.856;2022-10-31T14:09:54;14.20;;;4.07;;
19183;SDS011;9724;51.194;6.856;2022-10-31T14:12:23;16.83;;;4.23;;
19183;SDS011;9724;51.194;6.856;2022-10-31T14:14:53;19.77;;;4.60;;
19183;SDS011;9724;51.194;6.856;2022-10-31T14:17:23;13.63;;;4.90;;
19183;SDS011;9724;51.194;6.856;2022-10-31T14:20:03;13.97;;;4.27;;
19183;SDS011;9724;51.194;6.856;2022-10-31T14:22:50;14.37;;;4.67;;
19183;SDS011;9724;51.194;6.856;2022-10-31T14:25:24;9.60;;;4.07;;
19183;SDS011;9724;51.194;6.856;2022-10-31T14:27:51;11.47;;;4.10;;
19183;SDS011;9724;51.194;6.856;2022-10-31T14:30:19;18.10;;;4.93;;
19183;SDS011;9724;51.194;6.856;2022-10-31T14:32:50;14.63;;;4.37;;
19183;SDS011;9724;51.194;6.856;2022-10-31T14:35:17;11.67;;;4.03;;
19183;SDS011;9724;51.194;6.856;2022-10-31T14:37:52;13.70;;;3.80;;
19183;SDS011;9724;51.194;6.856;2022-10-31T14:40:29;13.20;;;4.20;;
19183;SDS011;9724;51.194;6.856;2022-10-31T14:43:10;12.43;;;4.10;;
19183;SDS011;9724;51.194;6.856;2022-10-31T14:45:47;11.63;;;4.20;;
19183;SDS011;9724;51.194;6.856;2022-10-31T14:48:24;10.40;;;3.93;;
19183;SDS011;9724;51.194;6.856;2022-10-31T14:50:56;13.03;;;4.27;;
19183;SDS011;9724;51.194;6.856;2022-10-31T14:53:25;14.70;;;4.50;;
19183;SDS011;9724;51.194;6.856;2022-10-31T14:55:53;14.53;;;4.00;;
19183;SDS011;9724;51.194;6.856;2022-10-31T14:58:22;17.73;;;3.70;;
19183;SDS011;9724;51.194;6.856;2022-10-31T15:00:53;13.33;;;4.47;;